Terminal Aerodrome Forecast
Issued by NWS

Home | Current Version | Previous Version | Text Only | Print | Product List | Glossary On
Versions: 1 2 3 4 5 6 7 8 9 10 11 12 13 14 15 16 17 18 19 20 21 22 23 24 25
653
FTUS46 KSEW 281133
TAFSEA
TAF
KSEA 281133Z 2812/2918 VRB03KT P6SM SKC
     FM281800 30006KT P6SM SKC
     FM290600 VRB03KT P6SM SKC
     FM291200 20004KT P6SM BKN011=

USA.gov is the U.S. government's official web portal to all federal, state and local government web resources and services.